createdAt,value
2018-06-01T00:00:16.733Z,0.00
2018-06-01T00:01:16.767Z,0.00
2018-06-01T00:02:16.793Z,0.00
2018-06-01T00:03:37.859Z,0.00
2018-06-01T00:04:16.874Z,0.00
2018-06-01T00:05:16.888Z,0.00
2018-06-01T00:06:16.927Z,0.00
2018-06-01T00:07:16.941Z,0.00
2018-06-01T00:08:16.974Z,0.00
2018-06-01T00:09:38.032Z,0.00
2018-06-01T00:10:17.052Z,0.00
2018-06-01T00:11:17.088Z,0.00
2018-06-01T00:12:17.116Z,0.00
2018-06-01T00:13:17.139Z,0.00
2018-06-01T00:14:17.182Z,0.00
2018-06-01T00:15:38.231Z,0.00
2018-06-01T00:16:17.236Z,0.00
2018-06-01T00:17:17.267Z,0.00
2018-06-01T00:18:17.300Z,0.00
2018-06-01T00:19:17.320Z,0.00
2018-06-01T00:20:17.355Z,0.00
2018-06-01T00:21:38.409Z,0.00
2018-06-01T00:22:17.427Z,0.00
2018-06-01T00:23:17.460Z,0.00
2018-06-01T00:24:17.507Z,0.00
2018-06-01T00:25:17.520Z,0.00
2018-06-01T00:26:17.560Z,0.00
2018-06-01T00:27:38.602Z,0.00
2018-06-01T00:28:17.616Z,0.00
2018-06-01T00:29:17.627Z,0.00
2018-06-01T00:30:17.686Z,0.00
2018-06-01T00:31:17.714Z,0.00
2018-06-01T00:32:17.731Z,0.00
2018-06-01T00:33:38.785Z,0.00
2018-06-01T00:34:17.792Z,0.00
2018-06-01T00:35:17.836Z,0.00
2018-06-01T00:36:17.852Z,0.00
2018-06-01T00:37:17.896Z,0.00
2018-06-01T00:38:17.925Z,0.00
2018-06-01T00:39:38.975Z,0.00
2018-06-01T00:40:17.988Z,0.00
2018-06-01T00:41:18.021Z,0.00
2018-06-01T00:42:18.075Z,0.00
2018-06-01T00:43:18.082Z,0.00
2018-06-01T00:44:18.114Z,0.00
2018-06-01T00:45:39.159Z,0.00
2018-06-01T00:46:18.185Z,0.00
2018-06-01T00:47:18.213Z,0.00
2018-06-01T00:48:18.240Z,0.00
2018-06-01T00:49:18.275Z,0.00
2018-06-01T00:50:18.340Z,0.00
2018-06-01T00:51:39.378Z,0.00
2018-06-01T00:52:18.388Z,0.00
2018-06-01T00:53:18.404Z,0.00
2018-06-01T00:54:18.421Z,0.00
2018-06-01T00:55:18.461Z,0.00
2018-06-01T00:56:18.488Z,0.00
2018-06-01T00:57:39.541Z,0.00
2018-06-01T00:58:18.587Z,0.00
2018-06-01T00:59:18.596Z,0.00
2018-06-01T01:00:18.621Z,0.00
2018-06-01T01:01:18.651Z,0.00
2018-06-01T01:02:18.786Z,0.00
2018-06-01T01:03:40.635Z,0.00
2018-06-01T01:04:18.752Z,0.00
2018-06-01T01:05:18.787Z,0.00
2018-06-01T01:06:18.820Z,0.00
2018-06-01T01:07:18.846Z,0.00
2018-06-01T01:08:18.881Z,0.00
2018-06-01T01:09:39.927Z,0.00
2018-06-01T01:10:18.948Z,0.00
2018-06-01T01:11:18.959Z,0.00
2018-06-01T01:12:19.014Z,0.00
2018-06-01T01:13:19.079Z,0.00
2018-06-01T01:14:19.071Z,0.00
2018-06-01T01:15:40.117Z,0.00
2018-06-01T01:16:19.131Z,0.00
2018-06-01T01:17:19.151Z,0.00
2018-06-01T01:18:19.179Z,0.00
2018-06-01T01:19:19.223Z,0.00
2018-06-01T01:20:19.254Z,0.00
2018-06-01T01:21:40.302Z,0.00
2018-06-01T01:22:19.333Z,0.00
2018-06-01T01:23:19.357Z,0.00
2018-06-01T01:24:19.377Z,0.00
2018-06-01T01:25:19.408Z,0.00
2018-06-01T01:26:19.444Z,0.00
2018-06-01T01:27:40.494Z,0.00
2018-06-01T01:28:19.492Z,0.00
2018-06-01T01:29:19.529Z,0.00
2018-06-01T01:30:19.570Z,0.00
2018-06-01T01:31:19.607Z,0.00
2018-06-01T01:32:19.638Z,0.00
2018-06-01T01:33:40.680Z,0.00
2018-06-01T01:34:19.696Z,0.00
2018-06-01T01:35:19.723Z,0.00
2018-06-01T01:36:19.743Z,0.00
2018-06-01T01:37:19.784Z,0.00
2018-06-01T01:38:19.833Z,0.00
2018-06-01T01:39:40.858Z,0.00
2018-06-01T01:40:19.873Z,0.00
2018-06-01T01:41:19.906Z,0.00
2018-06-01T01:42:19.962Z,0.00
2018-06-01T01:43:19.965Z,0.00
2018-06-01T01:44:20.008Z,0.00
2018-06-01T01:45:41.073Z,0.00
2018-06-01T01:46:20.236Z,0.00
2018-06-01T01:47:20.094Z,0.00
2018-06-01T01:48:20.121Z,0.00
2018-06-01T01:49:20.156Z,0.00
2018-06-01T01:50:20.186Z,0.00
2018-06-01T01:51:41.242Z,0.00
2018-06-01T01:52:20.241Z,0.00
2018-06-01T01:53:20.277Z,0.00
2018-06-01T01:54:20.317Z,0.00
2018-06-01T01:55:20.364Z,0.00
2018-06-01T01:56:20.369Z,0.00
2018-06-01T01:57:41.436Z,0.00
2018-06-01T01:58:20.442Z,0.00
2018-06-01T01:59:20.501Z,0.00
2018-06-01T02:00:20.512Z,0.00
2018-06-01T02:01:20.539Z,0.00
2018-06-01T02:02:20.576Z,0.00
2018-06-01T02:03:41.615Z,0.00
2018-06-01T02:04:20.634Z,0.00
2018-06-01T02:05:20.671Z,0.00
2018-06-01T02:06:20.685Z,0.00
2018-06-01T02:07:20.716Z,0.00
2018-06-01T02:08:20.769Z,0.00
2018-06-01T02:09:41.791Z,0.00
2018-06-01T02:10:20.807Z,0.00
2018-06-01T02:11:20.860Z,0.00
2018-06-01T02:12:20.885Z,0.00
2018-06-01T02:13:20.926Z,0.00
2018-06-01T02:14:20.942Z,0.00
2018-06-01T02:15:42.009Z,0.00
2018-06-01T02:16:21.027Z,0.00
2018-06-01T02:17:21.032Z,0.00
2018-06-01T02:18:21.069Z,0.00
2018-06-01T02:19:21.117Z,0.00
2018-06-01T02:20:21.184Z,0.00
2018-06-01T02:21:42.196Z,0.00
2018-06-01T02:22:21.207Z,0.00
2018-06-01T02:23:21.244Z,0.00
2018-06-01T02:24:21.252Z,0.00
2018-06-01T02:25:21.292Z,4.00
2018-06-01T02:26:21.327Z,4.00
2018-06-01T02:27:42.392Z,0.00
2018-06-01T02:28:21.386Z,0.00
2018-06-01T02:29:21.423Z,0.00
2018-06-01T02:30:21.435Z,4.00
2018-06-01T02:31:21.476Z,4.00
2018-06-01T02:32:21.516Z,0.00
2018-06-01T02:33:42.553Z,4.00
2018-06-01T02:34:21.563Z,4.00
2018-06-01T02:35:21.612Z,0.00
2018-06-01T02:36:21.637Z,4.00
2018-06-01T02:37:21.669Z,4.00
2018-06-01T02:38:21.695Z,4.00
2018-06-01T02:39:42.734Z,4.00
2018-06-01T02:40:21.765Z,4.00
2018-06-01T02:41:21.819Z,8.00
2018-06-01T02:42:21.824Z,4.00
2018-06-01T02:43:21.848Z,8.00
2018-06-01T02:44:21.873Z,8.00
2018-06-01T02:45:42.932Z,4.00
2018-06-01T02:46:21.937Z,8.00
2018-06-01T02:47:21.973Z,8.00
2018-06-01T02:48:22.010Z,8.00
2018-06-01T02:49:22.041Z,8.00
2018-06-01T02:50:22.067Z,8.00
2018-06-01T02:51:43.123Z,12.00
2018-06-01T02:52:22.142Z,12.00
2018-06-01T02:53:22.167Z,8.00
2018-06-01T02:54:22.183Z,12.00
2018-06-01T02:55:22.240Z,12.00
2018-06-01T02:56:22.262Z,12.00
2018-06-01T02:57:43.301Z,16.00
2018-06-01T02:58:22.311Z,16.00
2018-06-01T02:59:22.342Z,16.00
2018-06-01T03:00:22.386Z,16.00
2018-06-01T03:01:22.400Z,16.00
2018-06-01T03:02:22.442Z,20.00
2018-06-01T03:03:43.484Z,20.00
2018-06-01T03:04:22.498Z,20.00
2018-06-01T03:05:22.530Z,20.00
2018-06-01T03:06:22.566Z,24.00
2018-06-01T03:07:22.593Z,24.00
2018-06-01T03:08:22.627Z,28.00
2018-06-01T03:09:43.688Z,28.00
2018-06-01T03:10:22.680Z,28.00
2018-06-01T03:11:22.728Z,28.00
2018-06-01T03:12:22.764Z,28.00
2018-06-01T03:13:22.789Z,32.00
2018-06-01T03:14:22.809Z,32.00
2018-06-01T03:15:43.871Z,32.00
2018-06-01T03:16:22.883Z,36.00
2018-06-01T03:17:22.898Z,36.00
2018-06-01T03:18:22.943Z,36.00
2018-06-01T03:19:22.989Z,40.00
2018-06-01T03:20:23.002Z,40.00
2018-06-01T03:21:44.052Z,44.00
2018-06-01T03:22:23.063Z,40.00
2018-06-01T03:23:23.114Z,44.00
2018-06-01T03:24:23.119Z,48.00
2018-06-01T03:25:23.157Z,48.00
2018-06-01T03:26:23.196Z,48.00
2018-06-01T03:27:44.231Z,52.00
2018-06-01T03:28:23.251Z,52.00
2018-06-01T03:29:23.383Z,56.00
2018-06-01T03:30:23.320Z,56.00
2018-06-01T03:31:23.333Z,60.00
2018-06-01T03:32:23.379Z,60.00
2018-06-01T03:33:44.426Z,60.00
2018-06-01T03:34:23.427Z,64.00
2018-06-01T03:35:23.466Z,64.00
2018-06-01T03:36:23.504Z,64.00
2018-06-01T03:37:23.561Z,68.00
2018-06-01T03:38:24.202Z,68.00
2018-06-01T03:39:44.627Z,72.00
2018-06-01T03:40:23.673Z,76.00
2018-06-01T03:41:23.649Z,76.00
2018-06-01T03:42:23.688Z,80.00
2018-06-01T03:43:23.727Z,80.00
2018-06-01T03:44:23.739Z,84.00
2018-06-01T03:45:44.799Z,88.00
2018-06-01T03:46:23.824Z,88.00
2018-06-01T03:47:23.842Z,88.00
2018-06-01T03:48:23.861Z,92.00
2018-06-01T03:49:23.917Z,100.00
2018-06-01T03:50:23.963Z,104.00
2018-06-01T03:51:44.982Z,108.00
2018-06-01T03:52:23.996Z,108.00
2018-06-01T03:53:24.042Z,116.00
2018-06-01T03:54:24.048Z,112.00
2018-06-01T03:55:24.095Z,116.00
2018-06-01T03:56:24.129Z,124.00
2018-06-01T03:57:45.211Z,124.00
2018-06-01T03:58:24.175Z,124.00
2018-06-01T03:59:24.213Z,120.00
2018-06-01T04:00:24.246Z,132.00
2018-06-01T04:01:24.263Z,132.00
2018-06-01T04:02:24.309Z,140.00
2018-06-01T04:03:45.342Z,136.00
2018-06-01T04:04:24.359Z,136.00
2018-06-01T04:05:24.404Z,144.00
2018-06-01T04:06:24.454Z,164.00
2018-06-01T04:07:24.460Z,172.00
2018-06-01T04:08:24.486Z,184.00
2018-06-01T04:09:45.539Z,184.00
2018-06-01T04:10:24.545Z,192.00
2018-06-01T04:11:24.592Z,200.00
2018-06-01T04:12:24.624Z,220.00
2018-06-01T04:13:24.644Z,212.00
2018-06-01T04:14:24.668Z,216.00
2018-06-01T04:15:45.736Z,236.00
2018-06-01T04:16:24.758Z,240.00
2018-06-01T04:17:24.769Z,248.00
2018-06-01T04:18:24.807Z,264.00
2018-06-01T04:19:24.849Z,260.00
2018-06-01T04:20:24.856Z,272.00
2018-06-01T04:21:45.920Z,284.00
2018-06-01T04:22:24.926Z,280.00
2018-06-01T04:23:24.967Z,296.00
2018-06-01T04:24:24.983Z,304.00
2018-06-01T04:25:25.020Z,324.00
2018-06-01T04:26:25.044Z,324.00
2018-06-01T04:27:46.136Z,344.00
2018-06-01T04:28:25.117Z,344.00
2018-06-01T04:29:25.149Z,360.00
2018-06-01T04:30:25.767Z,332.00
2018-06-01T04:31:25.197Z,352.00
2018-06-01T04:32:25.264Z,364.00
2018-06-01T04:33:46.281Z,344.00
2018-06-01T04:34:25.295Z,380.00
2018-06-01T04:35:25.334Z,408.00
2018-06-01T04:36:25.409Z,380.00
2018-06-01T04:37:25.385Z,388.00
2018-06-01T04:38:25.487Z,404.00
2018-06-01T04:39:46.460Z,384.00
2018-06-01T04:40:25.531Z,432.00
2018-06-01T04:41:25.514Z,428.00
2018-06-01T04:42:25.567Z,464.00
2018-06-01T04:43:25.574Z,476.00
2018-06-01T04:44:25.597Z,468.00
2018-06-01T04:45:46.671Z,512.00
2018-06-01T04:46:25.675Z,480.00
2018-06-01T04:47:25.746Z,512.00
2018-06-01T04:48:25.733Z,568.00
2018-06-01T04:49:25.780Z,608.00
2018-06-01T04:50:25.798Z,568.00
2018-06-01T04:51:46.900Z,564.00
2018-06-01T04:52:25.865Z,572.00
2018-06-01T04:53:25.872Z,616.00
2018-06-01T04:54:25.912Z,748.00
2018-06-01T04:55:25.950Z,700.00
2018-06-01T04:56:26.021Z,684.00
2018-06-01T04:57:47.092Z,740.00
2018-06-01T04:58:26.107Z,716.00
2018-06-01T04:59:26.100Z,708.00
2018-06-01T05:00:26.153Z,700.00
2018-06-01T05:01:26.189Z,720.00
2018-06-01T05:02:26.177Z,704.00
2018-06-01T05:03:47.204Z,736.00
2018-06-01T05:04:26.227Z,904.00
2018-06-01T05:05:26.258Z,768.00
2018-06-01T05:06:26.306Z,744.00
2018-06-01T05:07:26.331Z,756.00
2018-06-01T05:08:26.354Z,776.00
2018-06-01T05:09:47.407Z,760.00
2018-06-01T05:10:26.452Z,752.00
2018-06-01T05:11:26.443Z,792.00
2018-06-01T05:12:26.475Z,704.00
2018-06-01T05:13:26.522Z,788.00
2018-06-01T05:14:26.549Z,716.00
2018-06-01T05:15:47.625Z,708.00
2018-06-01T05:16:26.616Z,708.00
2018-06-01T05:17:26.629Z,756.00
2018-06-01T05:18:26.658Z,696.00
2018-06-01T05:19:26.728Z,680.00
2018-06-01T05:20:26.734Z,748.00
2018-06-01T05:21:47.775Z,704.00
2018-06-01T05:22:26.791Z,696.00
2018-06-01T05:23:26.808Z,688.00
2018-06-01T05:24:26.858Z,696.00
2018-06-01T05:25:26.881Z,708.00
2018-06-01T05:26:26.919Z,692.00
2018-06-01T05:27:47.959Z,664.00
2018-06-01T05:28:26.972Z,752.00
2018-06-01T05:29:27.014Z,684.00
2018-06-01T05:30:27.050Z,680.00
2018-06-01T05:31:27.058Z,700.00
2018-06-01T05:32:27.104Z,660.00
2018-06-01T05:33:48.143Z,708.00
2018-06-01T05:34:27.183Z,660.00
2018-06-01T05:35:27.209Z,660.00
2018-06-01T05:36:27.264Z,716.00
2018-06-01T05:37:27.261Z,688.00
2018-06-01T05:38:27.280Z,708.00
2018-06-01T05:39:48.377Z,652.00
2018-06-01T05:40:27.332Z,648.00
2018-06-01T05:41:27.377Z,636.00
2018-06-01T05:42:27.408Z,620.00
2018-06-01T05:43:27.436Z,636.00
2018-06-01T05:44:27.491Z,636.00
2018-06-01T05:45:48.521Z,632.00
2018-06-01T05:46:27.543Z,608.00
2018-06-01T05:47:27.566Z,592.00
2018-06-01T05:48:27.608Z,576.00
2018-06-01T05:49:27.627Z,576.00
2018-06-01T05:50:27.659Z,560.00
2018-06-01T05:51:48.705Z,560.00
2018-06-01T05:52:27.716Z,564.00
2018-06-01T05:53:27.788Z,572.00
2018-06-01T05:54:27.840Z,620.00
2018-06-01T05:55:27.832Z,580.00
2018-06-01T05:56:27.897Z,556.00
2018-06-01T05:57:48.909Z,560.00
2018-06-01T05:58:27.903Z,544.00
2018-06-01T05:59:27.944Z,540.00
2018-06-01T06:00:28.029Z,568.00
2018-06-01T06:01:27.988Z,520.00
2018-06-01T06:02:28.028Z,516.00
2018-06-01T06:03:49.076Z,544.00
2018-06-01T06:04:28.094Z,552.00
2018-06-01T06:05:28.130Z,564.00
2018-06-01T06:06:28.193Z,608.00
2018-06-01T06:07:28.305Z,556.00
2018-06-01T06:08:28.214Z,580.00
2018-06-01T06:09:49.279Z,580.00
2018-06-01T06:10:28.287Z,560.00
2018-06-01T06:11:28.325Z,588.00
2018-06-01T06:12:28.416Z,544.00
2018-06-01T06:13:28.395Z,564.00
2018-06-01T06:14:28.397Z,608.00
2018-06-01T06:15:49.470Z,580.00
2018-06-01T06:16:28.486Z,608.00
2018-06-01T06:17:28.485Z,600.00
2018-06-01T06:18:28.527Z,556.00
2018-06-01T06:19:28.564Z,628.00
2018-06-01T06:20:28.606Z,656.00
2018-06-01T06:21:49.715Z,596.00
2018-06-01T06:22:28.657Z,656.00
2018-06-01T06:23:28.707Z,616.00
2018-06-01T06:24:28.741Z,612.00
2018-06-01T06:25:28.739Z,624.00
2018-06-01T06:26:28.814Z,604.00
2018-06-01T06:27:49.912Z,676.00
2018-06-01T06:28:28.838Z,624.00
2018-06-01T06:29:28.883Z,632.00
2018-06-01T06:30:28.910Z,628.00
2018-06-01T06:31:28.982Z,640.00
2018-06-01T06:32:28.964Z,644.00
2018-06-01T06:33:50.102Z,644.00
2018-06-01T06:34:29.024Z,652.00
2018-06-01T06:35:29.062Z,664.00
2018-06-01T06:36:29.092Z,704.00
2018-06-01T06:37:29.135Z,764.00
2018-06-01T06:38:29.181Z,696.00
2018-06-01T06:39:50.209Z,708.00
2018-06-01T06:40:29.237Z,728.00
2018-06-01T06:41:29.246Z,760.00
2018-06-01T06:42:29.330Z,740.00
2018-06-01T06:43:30.311Z,696.00
2018-06-01T06:44:29.358Z,720.00
2018-06-01T06:45:50.404Z,728.00
2018-06-01T06:46:29.414Z,712.00
2018-06-01T06:47:29.430Z,712.00
2018-06-01T06:48:29.577Z,728.00
2018-06-01T06:49:29.507Z,724.00
2018-06-01T06:50:29.594Z,736.00
2018-06-01T06:51:50.580Z,736.00
2018-06-01T06:52:29.587Z,756.00
2018-06-01T06:53:29.640Z,772.00
2018-06-01T06:54:29.762Z,804.00
2018-06-01T06:55:29.706Z,784.00
2018-06-01T06:56:29.716Z,760.00
2018-06-01T06:57:50.858Z,792.00
2018-06-01T06:58:29.773Z,792.00
2018-06-01T06:59:29.806Z,824.00
2018-06-01T07:00:29.868Z,1124.00
2018-06-01T07:01:29.887Z,796.00
2018-06-01T07:02:29.903Z,836.00
2018-06-01T07:03:50.961Z,840.00
2018-06-01T07:04:29.977Z,824.00
2018-06-01T07:05:30.069Z,868.00
2018-06-01T07:06:30.055Z,896.00
2018-06-01T07:07:30.091Z,928.00
2018-06-01T07:08:30.111Z,932.00
2018-06-01T07:09:51.153Z,932.00
2018-06-01T07:10:30.160Z,940.00
2018-06-01T07:11:30.196Z,1012.00
2018-06-01T07:12:30.220Z,984.00
2018-06-01T07:13:30.253Z,1056.00
2018-06-01T07:14:30.300Z,1076.00
2018-06-01T07:15:51.314Z,1092.00
2018-06-01T07:16:30.348Z,1184.00
2018-06-01T07:17:30.406Z,1220.00
2018-06-01T07:18:30.415Z,1240.00
2018-06-01T07:19:30.436Z,1256.00
2018-06-01T07:20:30.459Z,1244.00
2018-06-01T07:21:51.537Z,1252.00
2018-06-01T07:22:30.571Z,1252.00
2018-06-01T07:23:30.560Z,1216.00
2018-06-01T07:24:30.628Z,1236.00
2018-06-01T07:25:30.613Z,1232.00
2018-06-01T07:26:30.643Z,1244.00
2018-06-01T07:27:51.710Z,1252.00
2018-06-01T07:28:30.739Z,1260.00
2018-06-01T07:29:30.736Z,1264.00
2018-06-01T07:30:30.783Z,1276.00
2018-06-01T07:31:30.824Z,1268.00
2018-06-01T07:32:30.863Z,1248.00
2018-06-01T07:33:51.902Z,1264.00
2018-06-01T07:34:30.908Z,1268.00
2018-06-01T07:35:30.958Z,1256.00
2018-06-01T07:36:30.987Z,1252.00
2018-06-01T07:37:31.006Z,1252.00
2018-06-01T07:38:31.028Z,1240.00
2018-06-01T07:39:52.081Z,1192.00
2018-06-01T07:40:31.097Z,1184.00
2018-06-01T07:41:31.139Z,1036.00
2018-06-01T07:42:31.444Z,888.00
2018-06-01T07:43:31.394Z,1008.00
2018-06-01T07:44:31.225Z,916.00
2018-06-01T07:45:52.288Z,1096.00
2018-06-01T07:46:31.302Z,1256.00
2018-06-01T07:47:31.314Z,1216.00
2018-06-01T07:48:31.371Z,1304.00
2018-06-01T07:49:31.391Z,1372.00
2018-06-01T07:50:31.462Z,1388.00
2018-06-01T07:51:52.468Z,1376.00
2018-06-01T07:52:31.612Z,1388.00
2018-06-01T07:53:31.519Z,1392.00
2018-06-01T07:54:31.608Z,1520.00
2018-06-01T07:55:31.677Z,1512.00
2018-06-01T07:56:31.611Z,1580.00
2018-06-01T07:57:52.677Z,1624.00
2018-06-01T07:58:31.659Z,1764.00
2018-06-01T07:59:31.749Z,1752.00
2018-06-01T08:00:31.734Z,1700.00
2018-06-01T08:01:31.784Z,1744.00
2018-06-01T08:02:31.869Z,1732.00
2018-06-01T08:03:52.891Z,1724.00
2018-06-01T08:04:31.854Z,1592.00
2018-06-01T08:05:31.918Z,1656.00
2018-06-01T08:06:31.982Z,1816.00
2018-06-01T08:07:31.954Z,1852.00
2018-06-01T08:08:31.977Z,1960.00
2018-06-01T08:09:53.039Z,2072.00
2018-06-01T08:10:32.795Z,2108.00
2018-06-01T08:11:32.097Z,2216.00
2018-06-01T08:12:32.182Z,2276.00
2018-06-01T08:13:32.134Z,2108.00
2018-06-01T08:14:32.198Z,1988.00
2018-06-01T08:15:53.238Z,1940.00
2018-06-01T08:16:32.239Z,1900.00
2018-06-01T08:17:32.301Z,1856.00
2018-06-01T08:18:32.303Z,1936.00
2018-06-01T08:19:32.488Z,2056.00
2018-06-01T08:20:32.369Z,2180.00
2018-06-01T08:21:53.427Z,2124.00
2018-06-01T08:22:32.436Z,2012.00
2018-06-01T08:23:32.465Z,1856.00
2018-06-01T08:24:32.508Z,1872.00
2018-06-01T08:25:32.539Z,2036.00
2018-06-01T08:26:32.548Z,2104.00
2018-06-01T08:27:53.607Z,2152.00
2018-06-01T08:28:32.619Z,2048.00
2018-06-01T08:29:32.653Z,1912.00
2018-06-01T08:30:32.679Z,1840.00
2018-06-01T08:31:32.735Z,1836.00
2018-06-01T08:32:32.835Z,1624.00
2018-06-01T08:33:53.817Z,2000.00
2018-06-01T08:34:32.808Z,1564.00
2018-06-01T08:35:32.928Z,1632.00
2018-06-01T08:36:32.881Z,1780.00
2018-06-01T08:37:32.897Z,1704.00
2018-06-01T08:38:32.933Z,1436.00
2018-06-01T08:39:53.985Z,1504.00
2018-06-01T08:40:32.999Z,2036.00
2018-06-01T08:41:33.027Z,2248.00
2018-06-01T08:42:33.064Z,2244.00
2018-06-01T08:43:33.096Z,2248.00
2018-06-01T08:44:33.185Z,2276.00
2018-06-01T08:45:54.173Z,2236.00
2018-06-01T08:46:33.204Z,2228.00
2018-06-01T08:47:33.246Z,2240.00
2018-06-01T08:48:33.269Z,2280.00
2018-06-01T08:49:33.299Z,2436.00
2018-06-01T08:50:33.347Z,2504.00
2018-06-01T08:51:54.392Z,2616.00
2018-06-01T08:52:33.473Z,2664.00
2018-06-01T08:53:33.448Z,2720.00
2018-06-01T08:54:33.478Z,2552.00
2018-06-01T08:55:33.504Z,1940.00
2018-06-01T08:56:33.526Z,1764.00
2018-06-01T08:57:54.656Z,1824.00
2018-06-01T08:58:33.609Z,2196.00
2018-06-01T08:59:33.657Z,2588.00
2018-06-01T09:00:33.671Z,2804.00
2018-06-01T09:01:33.728Z,2700.00
2018-06-01T09:02:33.740Z,2624.00
2018-06-01T09:03:54.801Z,2200.00
2018-06-01T09:04:33.835Z,2044.00
2018-06-01T09:05:33.850Z,2136.00
2018-06-01T09:06:33.846Z,2076.00
2018-06-01T09:07:33.924Z,2152.00
2018-06-01T09:08:33.949Z,2688.00
2018-06-01T09:09:54.964Z,2516.00
2018-06-01T09:10:34.003Z,2556.00
2018-06-01T09:11:34.023Z,2432.00
2018-06-01T09:12:34.049Z,2332.00
2018-06-01T09:13:34.072Z,2596.00
2018-06-01T09:14:34.087Z,2884.00
2018-06-01T09:15:55.150Z,2496.00
2018-06-01T09:16:34.163Z,2644.00
2018-06-01T09:17:34.314Z,2300.00
2018-06-01T09:18:34.229Z,2376.00
2018-06-01T09:19:34.356Z,2504.00
2018-06-01T09:20:34.304Z,2628.00
2018-06-01T09:21:55.365Z,3272.00
2018-06-01T09:22:34.364Z,3272.00
2018-06-01T09:23:34.385Z,3324.00
2018-06-01T09:24:34.441Z,3220.00
2018-06-01T09:25:34.475Z,2752.00
2018-06-01T09:26:34.488Z,2760.00
2018-06-01T09:27:55.602Z,2708.00
2018-06-01T09:28:34.551Z,2456.00
2018-06-01T09:29:34.603Z,2384.00
2018-06-01T09:30:34.611Z,2776.00
2018-06-01T09:31:34.648Z,3140.00
2018-06-01T09:32:34.732Z,2144.00
2018-06-01T09:33:55.755Z,1592.00
2018-06-01T09:34:34.746Z,1104.00
2018-06-01T09:35:34.777Z,840.00
2018-06-01T09:36:34.812Z,692.00
2018-06-01T09:37:34.856Z,576.00
2018-06-01T09:38:34.869Z,516.00
2018-06-01T09:39:55.963Z,468.00
2018-06-01T09:40:34.933Z,440.00
2018-06-01T09:41:34.982Z,432.00
2018-06-01T09:42:35.057Z,420.00
2018-06-01T09:43:35.036Z,412.00
2018-06-01T09:44:35.075Z,404.00
2018-06-01T09:45:56.214Z,400.00
2018-06-01T09:46:35.139Z,396.00
2018-06-01T09:47:35.172Z,424.00
2018-06-01T09:48:35.197Z,468.00
2018-06-01T09:49:35.222Z,524.00
2018-06-01T09:50:35.262Z,600.00
2018-06-01T09:51:56.316Z,720.00
2018-06-01T09:52:35.335Z,836.00
2018-06-01T09:53:35.347Z,848.00
2018-06-01T09:54:35.381Z,832.00
2018-06-01T09:55:36.299Z,840.00
2018-06-01T09:56:35.470Z,868.00
2018-06-01T09:57:56.504Z,916.00
2018-06-01T09:58:35.517Z,972.00
2018-06-01T09:59:35.571Z,1048.00
2018-06-01T10:00:35.571Z,1136.00
2018-06-01T10:01:35.615Z,1208.00
2018-06-01T10:02:35.634Z,1224.00
2018-06-01T10:03:56.708Z,1220.00
2018-06-01T10:04:35.739Z,1180.00
2018-06-01T10:05:35.736Z,1156.00
2018-06-01T10:06:36.371Z,1160.00
2018-06-01T10:07:35.818Z,1192.00
2018-06-01T10:08:35.842Z,1252.00
2018-06-01T10:09:56.886Z,1320.00
2018-06-01T10:10:35.918Z,1476.00
2018-06-01T10:11:35.949Z,1524.00
2018-06-01T10:12:35.967Z,1632.00
2018-06-01T10:13:35.998Z,1600.00
2018-06-01T10:14:36.028Z,1660.00
2018-06-01T10:15:57.076Z,1760.00
2018-06-01T10:18:00.054Z,1808.00
2018-06-01T10:18:36.573Z,1780.00
2018-06-01T10:19:36.627Z,1792.00
2018-06-01T10:20:36.633Z,1836.00
2018-06-01T10:21:57.687Z,1900.00
2018-06-01T10:22:36.699Z,1924.00
2018-06-01T10:23:36.728Z,1940.00
2018-06-01T10:24:36.765Z,1988.00
2018-06-01T10:25:36.818Z,2164.00
2018-06-01T10:26:36.840Z,2564.00
2018-06-01T10:27:57.883Z,3824.00
2018-06-01T10:28:36.917Z,8288.00
2018-06-01T10:29:36.931Z,6104.00
2018-06-01T10:30:36.983Z,8208.00
2018-06-01T10:31:36.997Z,9612.00
2018-06-01T10:32:37.019Z,9340.00
2018-06-01T10:33:58.090Z,9208.00
2018-06-01T10:34:37.085Z,6792.00
2018-06-01T10:35:37.122Z,5368.00
2018-06-01T10:36:37.162Z,3352.00
2018-06-01T10:37:37.188Z,3072.00
2018-06-01T10:38:37.211Z,3052.00
2018-06-01T10:39:58.267Z,5868.00
2018-06-01T10:40:37.290Z,9876.00
2018-06-01T10:41:37.316Z,9808.00
2018-06-01T10:42:37.335Z,9576.00
2018-06-01T10:43:37.411Z,9996.00
2018-06-01T10:44:37.420Z,9984.00
2018-06-01T10:45:58.473Z,9948.00
2018-06-01T10:46:37.473Z,9808.00
2018-06-01T10:47:37.513Z,9588.00
2018-06-01T10:48:37.551Z,9592.00
2018-06-01T10:49:37.647Z,9460.00
2018-06-01T10:50:37.619Z,9632.00
2018-06-01T10:51:58.666Z,9740.00
2018-06-01T10:52:37.689Z,9816.00
2018-06-01T10:53:37.730Z,10160.00
2018-06-01T10:54:37.864Z,10240.00
2018-06-01T10:55:37.809Z,10296.00
2018-06-01T10:56:37.815Z,10260.00
2018-06-01T10:57:58.868Z,10304.00
2018-06-01T10:58:37.915Z,10284.00
2018-06-01T10:59:37.976Z,10304.00
2018-06-01T11:00:37.967Z,10260.00
2018-06-01T11:01:38.090Z,10224.00
2018-06-01T11:02:38.078Z,10100.00
2018-06-01T11:03:59.131Z,10016.00
2018-06-01T11:04:38.221Z,10052.00
2018-06-01T11:05:38.153Z,11368.00
2018-06-01T11:06:38.160Z,22592.00
2018-06-01T11:07:38.211Z,31936.00
2018-06-01T11:08:38.231Z,31232.00
2018-06-01T11:09:59.273Z,31616.00
2018-06-01T11:10:38.296Z,30464.00
2018-06-01T11:11:38.346Z,27424.00
2018-06-01T11:12:38.386Z,27072.00
2018-06-01T11:13:38.420Z,29952.00
2018-06-01T11:14:38.452Z,29088.00
2018-06-01T11:15:59.523Z,25888.00
2018-06-01T11:16:38.513Z,13924.00
2018-06-01T11:17:38.540Z,3216.00
2018-06-01T11:18:38.597Z,2484.00
2018-06-01T11:19:38.650Z,2504.00
2018-06-01T11:20:38.723Z,2536.00
2018-06-01T11:21:59.730Z,2580.00
2018-06-01T11:22:38.789Z,2616.00
2018-06-01T11:23:38.773Z,2652.00
2018-06-01T11:24:38.803Z,2728.00
2018-06-01T11:25:38.839Z,2968.00
2018-06-01T11:26:38.912Z,2852.00
2018-06-01T11:28:00.089Z,2756.00
2018-06-01T11:28:38.925Z,2416.00
2018-06-01T11:29:38.979Z,2368.00
2018-06-01T11:30:39.056Z,1964.00
2018-06-01T11:31:39.105Z,1768.00
2018-06-01T11:32:39.087Z,1692.00
2018-06-01T11:34:00.147Z,1580.00
2018-06-01T11:34:39.130Z,1540.00
2018-06-01T11:35:39.172Z,1508.00
2018-06-01T11:36:39.213Z,1476.00
2018-06-01T11:37:39.235Z,1444.00
2018-06-01T11:38:39.264Z,1388.00
2018-06-01T11:40:00.363Z,1420.00
2018-06-01T11:40:39.333Z,1412.00
2018-06-01T11:41:39.387Z,1388.00
2018-06-01T11:42:39.411Z,1368.00
2018-06-01T11:43:39.435Z,1344.00
2018-06-01T11:44:39.468Z,1324.00
2018-06-01T11:46:00.532Z,1312.00
2018-06-01T11:46:39.558Z,1304.00
2018-06-01T11:47:39.566Z,1264.00
2018-06-01T11:48:39.621Z,1260.00
2018-06-01T11:49:39.645Z,1236.00
2018-06-01T11:50:39.800Z,1216.00
2018-06-01T11:52:00.785Z,1184.00
2018-06-01T11:52:39.772Z,1152.00
2018-06-01T11:53:39.788Z,1124.00
2018-06-01T11:54:39.810Z,1080.00
2018-06-01T11:55:39.905Z,1060.00
2018-06-01T11:56:39.898Z,1064.00
2018-06-01T11:58:00.973Z,1052.00
2018-06-01T11:58:39.951Z,1036.00
2018-06-01T11:59:40.062Z,1020.00
2018-06-01T12:00:40.043Z,1012.00
2018-06-01T12:01:40.131Z,1008.00
2018-06-01T12:02:40.105Z,996.00
2018-06-01T12:04:01.148Z,996.00
2018-06-01T12:04:40.148Z,988.00
2018-06-01T12:05:40.178Z,980.00
2018-06-01T12:06:40.210Z,976.00
2018-06-01T12:07:40.264Z,964.00
2018-06-01T12:08:40.299Z,944.00
2018-06-01T12:10:01.330Z,944.00
2018-06-01T12:10:40.340Z,940.00
2018-06-01T12:11:40.380Z,936.00
2018-06-01T12:12:40.434Z,940.00
2018-06-01T12:13:40.459Z,940.00
2018-06-01T12:14:40.472Z,932.00
2018-06-01T12:16:01.543Z,920.00
2018-06-01T12:16:40.535Z,908.00
2018-06-01T12:17:40.587Z,908.00
2018-06-01T12:18:40.608Z,904.00
2018-06-01T12:19:40.632Z,904.00
2018-06-01T12:20:41.484Z,904.00
2018-06-01T12:22:01.732Z,900.00
2018-06-01T12:22:40.842Z,892.00
2018-06-01T12:23:40.812Z,884.00
2018-06-01T12:24:40.817Z,876.00
2018-06-01T12:25:40.824Z,876.00
2018-06-01T12:26:40.900Z,872.00
2018-06-01T12:28:01.962Z,868.00
2018-06-01T12:28:40.931Z,860.00
2018-06-01T12:29:40.994Z,860.00
2018-06-01T12:30:40.996Z,852.00
2018-06-01T12:31:41.050Z,852.00
2018-06-01T12:32:41.079Z,852.00
2018-06-01T12:34:02.108Z,852.00